Osakis, Minnesota
Current Conditions -  °F | °C
As of 11:53 PM on Saturday 25 Oct 2014 (Local Time) from KAXN Reporting Station
Clear Clear  
Wind Chill: 38°   Ceiling: Unl
Heat Index: 38°   Visibility: 10mi
Dew Point: 30°   Wind: 3mph
Humidity: 73%   Direction: 220°SW
Pressure: 30.04"   Gusts: NA
Location:  45.87°N, 95.15°W
Report Text: KAXN 260453Z AUTO 22003KT 10SM CLR 03/M01 A3004 RMK AO2 SLP182 T00331011
Loading
Personal Weather Stations






























Interactive Weather Map New forecast layout! Learn more

10-Day Weather Forecast

Advertisements
Track Severe Weather on mobile